Fort Lauderdale, FL

7:23 AM EDT on September 22, 2014 (GMT -0400)
River Reach in SW Ft. Lauderdale | Change Station
CLOSE
Current Station
Personal Weather Station
Location: Ft.Lauderdale, FL
Elevation: 74 ft
Nearby Weather Stations

Elev 74 ft 26.11 °N, 80.16 °W | Updated 6 minutes ago

Clear
Clear
76.4 °F
Feels Like 76 °F
N
0.0
Wind Variable Wind from North
Gusts 0.0 mph

Today
High -- | Low -- °F
--% Chance of Precip.
Yesterday
High -- | Low -- °F
Precip. -- in
7:09 AM 7:16 PM
Waning Crescent, 3% visible
Pressure 30.00 in
Visibility 10.0 miles
Clouds Few 2400 ft
Scattered Clouds 23000 ft
Heat Index 76 °F
Dew Point 76 °F
Humidity 97%
Rainfall 0.00 in
Snow Depth Not available.
UV 0 out of 12
Pollen 2.20 out of 12
Air Quality Not available.
Flu Activity Not available.
METAR KFLL 221053Z 33004KT 10SM FEW024 SCT230 25/24 A3000 RMK AO2 SLP159 T02500239

More Conditions Fewer Conditions

Pressure 30.00 in
Visibility 10.0 miles
Clouds Few 2400 ft
Scattered Clouds 23000 ft
Heat Index 76 °F
Dew Point 76 °F
Humidity 97%
Rainfall 0.00 in
Snow Depth Not available.
UV 0 out of 12
Pollen 2.20 out of 12
Air Quality Not available.
Flu Activity Not available.
METAR KFLL 221053Z 33004KT 10SM FEW024 SCT230 25/24 A3000 RMK AO2 SLP159 T02500239

More Conditions Fewer Conditions

10-Day Weather Forecast

Almanac

Astronomy

Sep. 22, 2014 Rise Set
Actual Time 7:09 AM EDT 7:16 PM EDT
Civil Twilight 6:46 AM EDT 7:39 PM EDT
Nautical Twilight 6:19 AM EDT 8:06 PM EDT
Astronomical Twilight 5:52 AM EDT 8:33 PM EDT
Moon 5:42 AM EDT 6:19 PM EDT
Length of Visible Light 12h 53m
Length of Day
12h 07m
Tomorrow will be 1m 32s shorter.
Waning Crescent, 3% of the Moon is Illuminated
Today
Waning Crescent
Sep 24
New
Oct 1
First Quarter
Oct 8
Full
Oct 15
Last Quarter

Today's Extremes

State Highs State Lows

Community

WunderPhotos

Upload Photos

1,755,409 photos uploaded!

Nearby

Air Quality

  Air Quality AQ Index Pollutant
Monday Good
OZONE

Snow Depth

Station Depth Elevation
No new snow has been reported.

Earthquake Activity

City Distance Mag. Time & Date
No recent earthquake activity has been reported nearby.
Minimum magnitude displayed is 2.5.

Coastal Water Temperatures

Place Temperature
Virginia Key, FL 84.0 °F

Nearby Weather Stations